Time;durP1;ratioP1;P1;durP2;ratioP2;P2;SDS_P1;SDS_P2;PMS_P1;PMS_P2;Temp;Humidity;BMP_temperature;BMP_pressure;BME280_temperature;BME280_humidity;BME280_pressure;Samples;Min_cycle;Max_cycle;Signal;HPM_P1;HPM_P2
2022/08/11 00:02:06;;;;;;;;;;;19.00;96.20;;;;;;5094620;28;20290;-65
2022/08/11 00:04:34;;;;;;;;;;;19.00;97.10;;;;;;5095427;28;19915;-65
2022/08/11 00:07:01;;;;;;;;;;;18.90;97.20;;;;;;5095427;28;20385;-65
2022/08/11 00:09:36;;;;;;;;;;;18.90;98.00;;;;;;5095406;28;19908;-65
2022/08/11 00:12:02;;;;;;;;;;;18.90;97.80;;;;;;5095031;28;19908;-65
2022/08/11 00:14:29;;;;;;;;;;;18.90;98.10;;;;;;5095270;28;19974;-65
2022/08/11 00:16:56;;;;;;;;;;;18.80;98.30;;;;;;5095147;28;19908;-65
2022/08/11 00:19:23;;;;;;;;;;;18.90;98.10;;;;;;5095187;28;20019;-65
2022/08/11 00:21:49;;;;;;;;;;;18.90;98.30;;;;;;5095078;28;19959;-65
2022/08/11 00:24:15;;;;;;;;;;;18.90;98.20;;;;;;5076680;28;19908;-65
2022/08/11 00:26:45;;;;;;;;;;;18.90;98.40;;;;;;5095036;28;20017;-65
2022/08/11 00:29:11;;;;;;;;;;;18.90;98.40;;;;;;5094688;28;19999;-65
2022/08/11 00:31:37;;;;;;;;;;;18.90;98.50;;;;;;5094682;28;19948;-65
2022/08/11 00:34:03;;;;;;;;;;;18.90;98.50;;;;;;5094632;28;19908;-65
2022/08/11 00:36:37;;;;;;;;;;;18.90;98.40;;;;;;5094879;28;20385;-65
2022/08/11 00:39:05;;;;;;;;;;;18.90;99.10;;;;;;5094818;28;20374;-65
2022/08/11 00:41:33;;;;;;;;;;;18.90;99.10;;;;;;5094770;28;19908;-65
2022/08/11 00:44:06;;;;;;;;;;;18.80;99.40;;;;;;5076345;28;20369;-65
2022/08/11 00:46:40;;;;;;;;;;;18.90;99.50;;;;;;5094690;28;19915;-65
2022/08/11 00:49:25;;;;;;;;;;;18.80;99.50;;;;;;5076235;28;19908;-65
2022/08/11 00:52:11;;;;;;;;;;;18.70;99.80;;;;;;5094104;28;20007;-65
2022/08/11 00:54:40;;;;;;;;;;;18.70;99.90;;;;;;5094187;28;19908;-65
2022/08/11 00:57:26;;;;;;;;;;;18.70;99.90;;;;;;5094178;28;19919;-65
2022/08/11 01:00:03;;;;;;;;;;;18.60;99.90;;;;;;5094137;28;20290;-65
2022/08/11 01:02:48;;;;;;;;;;;18.50;99.90;;;;;;5094397;28;20389;-65
2022/08/11 01:05:34;;;;;;;;;;;18.50;99.90;;;;;;5093852;28;20431;-65
2022/08/11 01:08:15;;;;;;;;;;;18.40;99.90;;;;;;5093939;28;19908;-65
2022/08/11 01:11:01;;;;;;;;;;;18.30;99.90;;;;;;5076272;28;20364;-65
2022/08/11 01:13:37;;;;;;;;;;;18.30;99.90;;;;;;5093739;28;19908;-65
2022/08/11 01:16:10;;;;;;;;;;;18.20;99.90;;;;;;5094185;28;19974;-65
2022/08/11 01:21:36;;;;;;;;;;;18.00;99.90;;;;;;5071116;28;20298;-65
2022/08/11 01:27:06;;;;;;;;;;;17.90;99.90;;;;;;5091382;27;19912;-65
2022/08/11 01:29:51;;;;;;;;;;;17.80;99.90;;;;;;5091178;28;19912;-65
2022/08/11 01:32:30;;;;;;;;;;;17.70;99.90;;;;;;5091122;28;19908;-64
2022/08/11 01:35:16;;;;;;;;;;;17.70;99.90;;;;;;5091327;28;19912;-64
2022/08/11 01:37:56;;;;;;;;;;;17.70;99.90;;;;;;5118392;28;19930;-65
2022/08/11 01:40:41;;;;;;;;;;;17.60;99.90;;;;;;5091214;28;20321;-65
2022/08/11 01:46:20;;;;;;;;;;;17.80;99.90;;;;;;5090613;28;19921;-64
2022/08/11 01:49:00;;;;;;;;;;;17.90;99.90;;;;;;5091077;28;19908;-65
2022/08/11 01:51:46;;;;;;;;;;;18.10;99.90;;;;;;5090757;28;19948;-64
2022/08/11 01:54:20;;;;;;;;;;;18.10;99.90;;;;;;5090683;28;19962;-65
2022/08/11 01:56:49;;;;;;;;;;;18.00;99.90;;;;;;5090662;28;19908;-64
2022/08/11 01:59:17;;;;;;;;;;;18.10;99.90;;;;;;5090833;28;19932;-65
2022/08/11 02:04:42;;;;;;;;;;;17.90;99.90;;;;;;5091310;27;20299;-65
2022/08/11 02:07:15;;;;;;;;;;;17.80;99.90;;;;;;5091186;28;19912;-65
2022/08/11 02:11:29;;;;;;;;;;;17.80;99.90;;;;;;5091387;28;20007;-65
2022/08/11 02:12:50;;;;;;;;;;;17.70;99.90;;;;;;5090896;28;19908;-65
2022/08/11 02:15:36;;;;;;;;;;;17.60;99.90;;;;;;5090981;28;19908;-65
2022/08/11 02:18:09;;;;;;;;;;;17.50;99.90;;;;;;5090965;28;19959;-65
2022/08/11 02:23:38;;;;;;;;;;;17.40;99.90;;;;;;5090597;28;19974;-65
2022/08/11 02:28:54;;;;;;;;;;;17.20;99.90;;;;;;5091309;27;19913;-64
2022/08/11 02:34:14;;;;;;;;;;;17.10;99.90;;;;;;5091214;27;20293;-64
2022/08/11 02:36:44;;;;;;;;;;;17.00;99.90;;;;;;5123967;28;19912;-64
2022/08/11 02:39:11;;;;;;;;;;;17.00;99.90;;;;;;5091378;28;19993;-64
2022/08/11 02:44:35;;;;;;;;;;;16.90;99.90;;;;;;5090873;28;19915;-65
2022/08/11 02:47:13;;;;;;;;;;;16.80;99.90;;;;;;5091243;28;20348;-65
2022/08/11 02:49:58;;;;;;;;;;;16.80;99.90;;;;;;5091186;28;19915;-64
2022/08/11 02:52:45;;;;;;;;;;;16.80;99.90;;;;;;5090797;28;19966;-65
2022/08/11 02:55:21;;;;;;;;;;;16.70;99.90;;;;;;5090766;28;19909;-65
2022/08/11 02:57:53;;;;;;;;;;;16.60;99.90;;;;;;5090801;28;20321;-64
2022/08/11 03:00:19;;;;;;;;;;;16.60;99.90;;;;;;5090646;28;20011;-65
2022/08/11 03:02:52;;;;;;;;;;;16.60;99.90;;;;;;5090657;28;19952;-65
2022/08/11 03:05:37;;;;;;;;;;;16.50;99.90;;;;;;5090890;28;20328;-65
2022/08/11 03:08:10;;;;;;;;;;;16.50;99.90;;;;;;5090576;28;19908;-64
2022/08/11 03:10:43;;;;;;;;;;;16.50;99.90;;;;;;5090517;28;19973;-64
2022/08/11 03:16:47;;;;;;;;;;;16.40;99.90;;;;;;5090267;28;19908;-65
2022/08/11 03:19:22;;;;;;;;;;;16.40;99.90;;;;;;5090251;28;20268;-65
2022/08/11 03:21:55;;;;;;;;;;;16.40;99.90;;;;;;5090284;28;19912;-65
2022/08/11 03:24:27;;;;;;;;;;;16.30;99.90;;;;;;5090360;28;19913;-65
2022/08/11 03:27:10;;;;;;;;;;;16.30;99.90;;;;;;5090431;28;20419;-64
2022/08/11 03:29:41;;;;;;;;;;;16.20;99.90;;;;;;5090388;28;19958;-65
2022/08/11 03:32:27;;;;;;;;;;;16.20;99.90;;;;;;5094213;28;20382;-65
2022/08/11 03:34:53;;;;;;;;;;;16.20;99.90;;;;;;5110360;28;19912;-64
2022/08/11 03:38:04;;;;;;;;;;;16.20;99.90;;;;;;5110613;28;20300;-65
2022/08/11 03:43:43;;;;;;;;;;;16.10;99.90;;;;;;5108055;28;19965;-65
2022/08/11 03:46:11;;;;;;;;;;;16.10;99.90;;;;;;5096428;28;20314;-65
2022/08/11 03:48:42;;;;;;;;;;;16.00;99.90;;;;;;5096800;28;20285;-65
2022/08/11 03:51:18;;;;;;;;;;;16.00;99.90;;;;;;5096758;28;20388;-64
2022/08/11 03:54:04;;;;;;;;;;;16.00;99.90;;;;;;5096679;28;20380;-65
2022/08/11 03:56:49;;;;;;;;;;;16.00;99.90;;;;;;5096269;28;19908;-64
2022/08/11 03:59:30;;;;;;;;;;;15.90;99.90;;;;;;5096248;28;19915;-64
2022/08/11 04:02:05;;;;;;;;;;;15.90;99.90;;;;;;5078300;28;20294;-65
2022/08/11 04:04:50;;;;;;;;;;;15.90;99.90;;;;;;5096573;28;19957;-65
2022/08/11 04:07:36;;;;;;;;;;;15.90;99.90;;;;;;5096045;28;19924;-65
2022/08/11 04:10:21;;;;;;;;;;;15.90;99.90;;;;;;5096033;28;20279;-65
2022/08/11 04:13:07;;;;;;;;;;;15.90;99.90;;;;;;5095814;28;20354;-65
2022/08/11 04:15:59;;;;;;;;;;;15.90;99.90;;;;;;5095941;28;19908;-65
2022/08/11 04:18:44;;;;;;;;;;;15.90;99.90;;;;;;5096222;28;19912;-64
2022/08/11 04:21:30;;;;;;;;;;;15.90;99.90;;;;;;5077695;28;19908;-64
2022/08/11 04:24:08;;;;;;;;;;;15.80;99.90;;;;;;5095814;28;19912;-65
2022/08/11 04:26:48;;;;;;;;;;;15.80;99.90;;;;;;5095798;28;19908;-65
2022/08/11 04:29:24;;;;;;;;;;;15.80;99.90;;;;;;5096012;28;20388;-65
2022/08/11 04:32:10;;;;;;;;;;;15.80;99.90;;;;;;5095483;28;19908;-65
2022/08/11 04:34:55;;;;;;;;;;;15.90;99.90;;;;;;5095587;28;20259;-65
2022/08/11 04:37:41;;;;;;;;;;;15.80;99.90;;;;;;5095556;28;19928;-65
2022/08/11 04:40:26;;;;;;;;;;;15.80;99.90;;;;;;5095353;28;19911;-65
2022/08/11 04:43:27;;;;;;;;;;;15.90;99.90;;;;;;5095382;28;20003;-65
2022/08/11 04:46:01;;;;;;;;;;;15.90;99.90;;;;;;5095245;28;19915;-64
2022/08/11 05:03:12;;;;;;;;;;;16.50;99.90;;;;;;5088297;28;19994;-65
2022/08/11 05:05:57;;;;;;;;;;;16.70;99.90;;;;;;5094667;28;19915;-65
2022/08/11 05:08:50;;;;;;;;;;;16.80;99.90;;;;;;5088207;28;19957;-65
2022/08/11 05:11:27;;;;;;;;;;;16.90;99.90;;;;;;5094498;28;20263;-65
2022/08/11 05:36:40;;;;;;;;;;;18.30;99.90;;;;;;5094223;28;19999;-65
2022/08/11 05:56:21;;;;;;;;;;;26.10;90.90;;;;;;5078744;28;20340;-66
2022/08/11 05:58:37;;;;;;;;;;;26.80;88.70;;;;;;5093918;28;19915;-66
2022/08/11 06:01:03;;;;;;;;;;;28.20;79.10;;;;;;5094106;28;19999;-67
2022/08/11 06:03:29;;;;;;;;;;;29.30;71.20;;;;;;5076009;28;19915;-66
2022/08/11 06:05:55;;;;;;;;;;;29.20;68.70;;;;;;5094396;28;19908;-66
2022/08/11 06:08:36;;;;;;;;;;;30.00;65.50;;;;;;5094093;28;20282;-66
2022/08/11 06:11:03;;;;;;;;;;;30.20;63.50;;;;;;5094227;28;20011;-66
2022/08/11 06:13:29;;;;;;;;;;;30.40;63.10;;;;;;5076046;28;19948;-64
2022/08/11 06:15:56;;;;;;;;;;;30.80;60.00;;;;;;5075700;28;20275;-64
2022/08/11 06:18:21;;;;;;;;;;;31.30;59.20;;;;;;5093898;28;19966;-64
2022/08/11 06:20:48;;;;;;;;;;;31.80;57.70;;;;;;5075776;28;19908;-65
2022/08/11 06:23:16;;;;;;;;;;;31.20;57.80;;;;;;5094072;28;19908;-65
2022/08/11 06:25:42;;;;;;;;;;;31.00;57.20;;;;;;5093736;28;20258;-65
2022/08/11 06:28:08;;;;;;;;;;;31.70;56.90;;;;;;5093678;28;19908;-65
2022/08/11 06:30:38;;;;;;;;;;;31.90;55.40;;;;;;5093970;28;19916;-65
2022/08/11 06:33:06;;;;;;;;;;;31.70;55.70;;;;;;5093419;28;20010;-65
2022/08/11 06:35:37;;;;;;;;;;;30.30;56.60;;;;;;5093921;28;19908;-65
2022/08/11 06:38:06;;;;;;;;;;;31.30;57.60;;;;;;5093878;28;19908;-65
2022/08/11 06:43:48;;;;;;;;;;;32.60;54.60;;;;;;5093332;28;19909;-65
2022/08/11 06:46:16;;;;;;;;;;;32.00;55.00;;;;;;5093815;28;20286;-65
2022/08/11 06:48:43;;;;;;;;;;;32.00;55.70;;;;;;5093773;28;20271;-65
2022/08/11 06:51:12;;;;;;;;;;;32.20;54.80;;;;;;5093678;28;19961;-65
2022/08/11 06:53:46;;;;;;;;;;;32.30;54.50;;;;;;5093593;28;20377;-65
2022/08/11 07:01:56;;;;;;;;;;;32.90;53.50;;;;;;5093246;28;19908;-65
2022/08/11 07:04:28;;;;;;;;;;;33.40;53.60;;;;;;5093386;28;19958;-65
2022/08/11 07:15:47;;;;;;;;;;;;;;;;;;5093120;28;19915;-65
2022/08/11 07:29:30;;;;;;;;;;;35.70;47.80;;;;;;5096721;28;19998;-65
2022/08/11 07:32:02;;;;;;;;;;;35.50;48.70;;;;;;5096629;28;20015;-65
2022/08/11 07:34:32;;;;;;;;;;;35.00;48.70;;;;;;5096789;28;19915;-65
2022/08/11 07:36:59;;;;;;;;;;;35.10;48.10;;;;;;5096823;28;19929;-65
2022/08/11 07:39:26;;;;;;;;;;;35.50;47.70;;;;;;5096980;28;19994;-65
2022/08/11 07:41:52;;;;;;;;;;;35.50;48.50;;;;;;5097012;28;20450;-65
2022/08/11 07:44:19;;;;;;;;;;;34.40;47.40;;;;;;5096918;28;19908;-65
2022/08/11 07:52:28;;;;;;;;;;;;;;;;;;5096187;28;19919;-65
2022/08/11 07:54:56;;;;;;;;;;;36.40;45.50;;;;;;5096741;28;20393;-65
2022/08/11 08:19:28;;;;;;;;;;;36.10;44.80;;;;;;5095737;28;19908;-65
2022/08/11 08:21:54;;;;;;;;;;;35.40;45.50;;;;;;5095950;28;19916;-66
2022/08/11 08:24:20;;;;;;;;;;;36.20;46.10;;;;;;5095786;28;20385;-65
2022/08/11 08:27:02;;;;;;;;;;;36.30;46.00;;;;;;5096068;28;19908;-65
2022/08/11 08:32:22;;;;;;;;;;;37.00;43.80;;;;;;5095214;28;19973;-65
2022/08/11 08:34:49;;;;;;;;;;;35.40;45.20;;;;;;5095960;28;19961;-65
2022/08/11 08:37:17;;;;;;;;;;;35.40;46.20;;;;;;5095901;28;20011;-65
2022/08/11 08:39:44;;;;;;;;;;;35.70;46.60;;;;;;5095538;28;19908;-65
2022/08/11 08:42:11;;;;;;;;;;;35.90;45.70;;;;;;5095561;28;20362;-65
2022/08/11 08:44:41;;;;;;;;;;;35.40;45.40;;;;;;5095747;28;20333;-66
2022/08/11 08:47:11;;;;;;;;;;;36.10;45.20;;;;;;5095468;28;19961;-65
2022/08/11 08:49:38;;;;;;;;;;;35.50;44.90;;;;;;5095596;28;20385;-66
2022/08/11 08:52:05;;;;;;;;;;;35.30;46.10;;;;;;5095557;28;19935;-66
2022/08/11 08:54:32;;;;;;;;;;;36.30;45.20;;;;;;5095242;28;19908;-65
2022/08/11 08:57:02;;;;;;;;;;;36.30;44.70;;;;;;5095172;28;19915;-66
2022/08/11 08:59:28;;;;;;;;;;;37.10;44.10;;;;;;5095413;28;19991;-66
2022/08/11 09:01:57;;;;;;;;;;;37.10;43.30;;;;;;5095421;28;20350;-66
2022/08/11 09:04:22;;;;;;;;;;;37.20;43.60;;;;;;5095349;28;19915;-65
2022/08/11 09:06:49;;;;;;;;;;;37.00;44.30;;;;;;5095328;28;19909;-65
2022/08/11 09:09:15;;;;;;;;;;;36.80;43.10;;;;;;5095240;28;20042;-66
2022/08/11 09:11:56;;;;;;;;;;;36.00;43.90;;;;;;5094921;28;20386;-66
2022/08/11 09:14:23;;;;;;;;;;;36.90;43.70;;;;;;5095088;28;20035;-66
2022/08/11 09:16:49;;;;;;;;;;;37.20;43.70;;;;;;5095111;28;19908;-66
2022/08/11 09:19:17;;;;;;;;;;;37.30;43.30;;;;;;5095073;28;19958;-65
2022/08/11 09:21:43;;;;;;;;;;;36.90;42.30;;;;;;5095026;28;20285;-66
2022/08/11 09:26:59;;;;;;;;;;;37.10;41.90;;;;;;5094466;28;19915;-66
2022/08/11 09:29:27;;;;;;;;;;;37.60;42.10;;;;;;5094877;28;19915;-66
2022/08/11 09:31:53;;;;;;;;;;;37.80;41.50;;;;;;5094565;28;20382;-65
2022/08/11 09:34:19;;;;;;;;;;;38.00;41.40;;;;;;5094420;28;19912;-65
2022/08/11 09:42:19;;;;;;;;;;;36.90;41.50;;;;;;5093729;28;19912;-66
2022/08/11 09:44:47;;;;;;;;;;;37.20;41.70;;;;;;5094391;28;19908;-66
2022/08/11 09:47:29;;;;;;;;;;;36.60;40.70;;;;;;5076216;28;20369;-65
2022/08/11 09:49:58;;;;;;;;;;;36.40;40.90;;;;;;5094551;28;19909;-66
2022/08/11 09:52:25;;;;;;;;;;;36.60;40.80;;;;;;5094443;28;20386;-66
2022/08/11 09:54:51;;;;;;;;;;;36.70;40.30;;;;;;5094161;28;20002;-65
2022/08/11 10:00:04;;;;;;;;;;;35.50;41.00;;;;;;5093916;28;20374;-65
2022/08/11 10:02:30;;;;;;;;;;;35.90;41.50;;;;;;5094075;28;19944;-66
2022/08/11 10:07:00;;;;;;;;;;;35.40;41.80;;;;;;5094302;28;19969;-66
2022/08/11 10:07:49;;;;;;;;;;;36.20;40.50;;;;;;5093781;28;19908;-66
2022/08/11 10:10:21;;;;;;;;;;;36.20;40.70;;;;;;5093889;28;19908;-65
2022/08/11 10:12:50;;;;;;;;;;;36.30;40.80;;;;;;5094125;28;19920;-66
2022/08/11 10:15:32;;;;;;;;;;;36.60;41.40;;;;;;5094203;28;20373;-66
2022/08/11 10:20:49;;;;;;;;;;;36.80;39.60;;;;;;5093667;28;19908;-65
2022/08/11 10:28:47;;;;;;;;;;;36.20;40.00;;;;;;5093527;28;19912;-65
2022/08/11 10:34:00;;;;;;;;;;;35.90;40.30;;;;;;5093313;28;19920;-65
2022/08/11 10:36:27;;;;;;;;;;;36.10;41.90;;;;;;5093616;28;19942;-65
2022/08/11 10:38:53;;;;;;;;;;;36.20;40.20;;;;;;5093881;28;20393;-65
2022/08/11 10:44:06;;;;;;;;;;;36.10;40.30;;;;;;5093402;28;19908;-65
2022/08/11 10:49:18;;;;;;;;;;;35.20;41.20;;;;;;5093293;28;19912;-65
2022/08/11 11:00:04;;;;;;;;;;;34.10;43.20;;;;;;5097348;28;19908;-65
2022/08/11 11:02:30;;;;;;;;;;;33.80;43.00;;;;;;5097752;28;19908;-65
2022/08/11 11:04:57;;;;;;;;;;;;;;;;;;5097386;28;20417;-65
2022/08/11 11:07:26;;;;;;;;;;;33.00;43.90;;;;;;5097589;28;19908;-65
2022/08/11 11:09:54;;;;;;;;;;;32.80;45.10;;;;;;5097550;28;20363;-65
2022/08/11 11:20:40;;;;;;;;;;;33.20;43.80;;;;;;5071020;28;19913;-65
2022/08/11 11:23:26;;;;;;;;;;;33.00;44.60;;;;;;5071169;28;19913;-65
2022/08/11 11:26:12;;;;;;;;;;;33.20;44.80;;;;;;5083853;28;20448;-65
2022/08/11 11:28:47;;;;;;;;;;;33.70;43.80;;;;;;5070992;28;19909;-65
2022/08/11 11:31:33;;;;;;;;;;;33.10;43.80;;;;;;5070712;28;19913;-65
2022/08/11 11:34:18;;;;;;;;;;;32.90;43.70;;;;;;5070553;28;19908;-65
2022/08/11 11:36:49;;;;;;;;;;;32.80;43.80;;;;;;5070569;28;19944;-65
2022/08/11 11:39:17;;;;;;;;;;;32.50;44.20;;;;;;5070797;28;19916;-65
2022/08/11 11:41:43;;;;;;;;;;;32.40;46.00;;;;;;5070790;28;20011;-65
2022/08/11 11:44:10;;;;;;;;;;;32.50;44.70;;;;;;5070746;28;20328;-65
2022/08/11 11:46:36;;;;;;;;;;;32.50;45.80;;;;;;5070448;28;19908;-65
2022/08/11 11:49:06;;;;;;;;;;;32.70;44.00;;;;;;5070430;28;19915;-65
2022/08/11 11:51:32;;;;;;;;;;;32.60;45.00;;;;;;5070621;28;19916;-65
2022/08/11 11:53:58;;;;;;;;;;;32.30;45.10;;;;;;5069163;28;19909;-65
2022/08/11 11:56:24;;;;;;;;;;;32.40;45.50;;;;;;5069356;28;20393;-65
2022/08/11 12:01:35;;;;;;;;;;;32.50;46.10;;;;;;5069966;28;20302;-65
2022/08/11 12:04:04;;;;;;;;;;;32.40;45.50;;;;;;5070064;28;19995;-65
2022/08/11 12:06:30;;;;;;;;;;;32.00;45.90;;;;;;5070045;28;20264;-65
2022/08/11 12:08:57;;;;;;;;;;;32.20;46.10;;;;;;5068725;28;19959;-65
2022/08/11 12:14:10;;;;;;;;;;;32.40;45.80;;;;;;5069666;28;20354;-65
2022/08/11 12:16:36;;;;;;;;;;;32.40;45.70;;;;;;5070100;28;19909;-65
2022/08/11 12:19:04;;;;;;;;;;;32.50;45.70;;;;;;5076666;28;20455;-65
2022/08/11 12:21:29;;;;;;;;;;;32.50;44.00;;;;;;5090280;28;20252;-65
2022/08/11 12:29:28;;;;;;;;;;;32.30;44.80;;;;;;5089651;28;19909;-65
2022/08/11 12:31:54;;;;;;;;;;;32.40;45.10;;;;;;5077108;28;19931;-65
2022/08/11 12:34:19;;;;;;;;;;;32.20;44.10;;;;;;5076513;28;20379;-65
2022/08/11 12:36:49;;;;;;;;;;;32.30;44.40;;;;;;5076503;28;19908;-65
2022/08/11 12:39:19;;;;;;;;;;;32.30;44.40;;;;;;5076377;28;20345;-65
2022/08/11 12:47:19;;;;;;;;;;;31.80;44.70;;;;;;5075715;28;20338;-65
2022/08/11 12:52:34;;;;;;;;;;;31.80;44.40;;;;;;5075791;28;19908;-65
2022/08/11 12:58:14;;;;;;;;;;;31.70;44.80;;;;;;5076150;28;19913;-65
2022/08/11 12:58:16;;;;;;;;;;;31.50;44.90;;;;;;5075679;28;19913;-65
2022/08/11 13:06:19;;;;;;;;;;;31.70;44.90;;;;;;5075457;28;19908;-65
2022/08/11 13:08:45;;;;;;;;;;;31.80;45.00;;;;;;5075900;28;20359;-65
2022/08/11 13:13:56;;;;;;;;;;;32.00;44.80;;;;;;5075448;28;19909;-65
2022/08/11 13:16:25;;;;;;;;;;;31.80;44.70;;;;;;5075801;28;19908;-65
2022/08/11 13:18:51;;;;;;;;;;;31.90;44.30;;;;;;5057468;28;19952;-65
2022/08/11 13:21:18;;;;;;;;;;;32.30;44.50;;;;;;5057690;28;20382;-65
2022/08/11 13:23:44;;;;;;;;;;;32.60;43.80;;;;;;5075592;28;19909;-64
2022/08/11 13:26:10;;;;;;;;;;;32.10;43.70;;;;;;5075293;28;19908;-65
2022/08/11 13:28:36;;;;;;;;;;;32.00;43.90;;;;;;5075214;28;20041;-65
2022/08/11 13:31:17;;;;;;;;;;;32.40;44.60;;;;;;5074608;28;19913;-65
2022/08/11 13:33:45;;;;;;;;;;;32.40;43.30;;;;;;5065249;28;20357;-64
2022/08/11 13:36:11;;;;;;;;;;;32.30;43.10;;;;;;5070671;28;19918;-65
2022/08/11 13:38:40;;;;;;;;;;;31.80;43.70;;;;;;5063476;28;19960;-64
2022/08/11 13:41:36;;;;;;;;;;;31.70;43.80;;;;;;5072730;28;20447;-65
2022/08/11 13:43:51;;;;;;;;;;;31.80;44.20;;;;;;5093014;28;20382;-65
2022/08/11 13:46:19;;;;;;;;;;;31.90;44.10;;;;;;5094300;28;19908;-65
2022/08/11 13:48:45;;;;;;;;;;;31.80;43.60;;;;;;5094832;28;20319;-65
2022/08/11 13:51:42;;;;;;;;;;;32.00;43.90;;;;;;5095139;28;19908;-64
2022/08/11 13:53:58;;;;;;;;;;;32.00;43.00;;;;;;5094712;28;20378;-65
2022/08/11 13:56:25;;;;;;;;;;;32.10;42.80;;;;;;5094857;28;19908;-65
2022/08/11 13:58:51;;;;;;;;;;;31.80;42.70;;;;;;5095109;28;19923;-65
2022/08/11 14:01:18;;;;;;;;;;;31.70;43.00;;;;;;5094922;28;20010;-65
2022/08/11 14:03:45;;;;;;;;;;;31.70;43.50;;;;;;5094856;28;19908;-65
2022/08/11 14:06:12;;;;;;;;;;;31.80;43.10;;;;;;5094897;28;20008;-65
2022/08/11 14:08:38;;;;;;;;;;;32.10;43.50;;;;;;5094951;28;19954;-65
2022/08/11 14:13:51;;;;;;;;;;;31.70;43.40;;;;;;5094281;28;19912;-64
2022/08/11 14:16:35;;;;;;;;;;;31.90;43.80;;;;;;5094543;28;20362;-64
2022/08/11 14:19:03;;;;;;;;;;;31.90;44.30;;;;;;5094214;28;19920;-64
2022/08/11 14:22:05;;;;;;;;;;;31.70;43.70;;;;;;5076359;28;19908;-65
2022/08/11 14:24:18;;;;;;;;;;;31.70;44.40;;;;;;5094214;28;19908;-65
2022/08/11 14:26:45;;;;;;;;;;;31.50;44.80;;;;;;5094631;28;19915;-65
2022/08/11 14:29:13;;;;;;;;;;;31.30;45.00;;;;;;5094317;28;19946;-65
2022/08/11 14:31:43;;;;;;;;;;;31.30;45.10;;;;;;5094605;28;19908;-65
2022/08/11 14:34:11;;;;;;;;;;;31.20;45.30;;;;;;5094523;28;19908;-65
2022/08/11 14:36:38;;;;;;;;;;;31.40;45.20;;;;;;5094507;28;19908;-65
2022/08/11 14:39:10;;;;;;;;;;;31.50;44.40;;;;;;5076008;28;19919;-65
2022/08/11 14:47:07;;;;;;;;;;;31.40;44.90;;;;;;5093789;28;19908;-65
2022/08/11 14:49:35;;;;;;;;;;;31.40;44.40;;;;;;5094282;28;19938;-65
2022/08/11 14:52:03;;;;;;;;;;;31.50;44.70;;;;;;5094261;28;19999;-65
2022/08/11 14:57:15;;;;;;;;;;;31.70;44.20;;;;;;5093722;28;19915;-65
2022/08/11 14:59:42;;;;;;;;;;;31.80;44.00;;;;;;5075717;28;20384;-65
2022/08/11 15:04:54;;;;;;;;;;;31.70;44.10;;;;;;5093620;28;19908;-65
2022/08/11 15:07:28;;;;;;;;;;;31.70;43.80;;;;;;5076007;28;20382;-65
2022/08/11 15:09:55;;;;;;;;;;;31.50;43.70;;;;;;5093941;28;19934;-65
2022/08/11 15:12:20;;;;;;;;;;;31.70;43.70;;;;;;5093508;28;20001;-65
2022/08/11 15:17:34;;;;;;;;;;;32.00;43.30;;;;;;5093479;28;19927;-65
2022/08/11 15:25:33;;;;;;;;;;;32.00;44.00;;;;;;5093277;28;19912;-65
2022/08/11 15:39:08;;;;;;;;;;;32.00;44.10;;;;;;5093160;28;20007;-65
2022/08/11 15:47:14;;;;;;;;;;;31.50;44.40;;;;;;5093247;28;19908;-65
2022/08/11 15:49:40;;;;;;;;;;;31.50;44.70;;;;;;5093629;28;19914;-65
2022/08/11 15:52:07;;;;;;;;;;;31.50;44.60;;;;;;5093627;28;20358;-65
2022/08/11 15:54:34;;;;;;;;;;;31.40;44.60;;;;;;5093284;28;19908;-65
2022/08/11 15:57:01;;;;;;;;;;;31.40;44.90;;;;;;5093539;28;19947;-66
2022/08/11 16:05:01;;;;;;;;;;;31.40;45.20;;;;;;5092940;28;20289;-65
2022/08/11 16:07:29;;;;;;;;;;;31.30;45.60;;;;;;5096874;28;19912;-65
2022/08/11 16:10:00;;;;;;;;;;;31.30;45.80;;;;;;5097279;28;19950;-65
2022/08/11 16:12:27;;;;;;;;;;;31.30;45.80;;;;;;5097255;28;20394;-65
2022/08/11 16:17:44;;;;;;;;;;;31.20;45.90;;;;;;5096672;28;19934;-65
2022/08/11 16:20:11;;;;;;;;;;;31.30;46.40;;;;;;5096546;28;20427;-65
2022/08/11 16:22:42;;;;;;;;;;;31.40;46.30;;;;;;5097071;28;19908;-65
2022/08/11 16:25:09;;;;;;;;;;;31.40;46.50;;;;;;5097026;28;19908;-65
2022/08/11 16:27:37;;;;;;;;;;;31.20;46.50;;;;;;5096667;28;19911;-65
2022/08/11 16:30:04;;;;;;;;;;;31.00;46.60;;;;;;5096640;28;19908;-65
2022/08/11 16:32:30;;;;;;;;;;;30.90;46.50;;;;;;5096912;28;20094;-65
2022/08/11 16:40:29;;;;;;;;;;;30.90;47.10;;;;;;5096038;28;19912;-65
2022/08/11 16:48:31;;;;;;;;;;;30.90;47.30;;;;;;5096059;28;19999;-65
2022/08/11 16:50:59;;;;;;;;;;;30.90;46.80;;;;;;5096505;28;19908;-65
2022/08/11 16:53:29;;;;;;;;;;;30.90;47.30;;;;;;5096470;28;20366;-65
2022/08/11 16:55:54;;;;;;;;;;;30.70;47.00;;;;;;5096130;28;19916;-65
2022/08/11 17:01:08;;;;;;;;;;;30.40;47.40;;;;;;5095868;28;19912;-65
2022/08/11 17:14:48;;;;;;;;;;;30.30;47.80;;;;;;5095671;28;19931;-65
2022/08/11 17:17:16;;;;;;;;;;;30.20;47.70;;;;;;5077563;28;19908;-65
2022/08/11 17:19:44;;;;;;;;;;;30.10;48.20;;;;;;5095506;28;19989;-65
2022/08/11 17:24:56;;;;;;;;;;;29.90;48.40;;;;;;5095440;28;20279;-65
2022/08/11 17:27:23;;;;;;;;;;;29.90;48.30;;;;;;5095609;28;19915;-65
2022/08/11 17:29:50;;;;;;;;;;;29.80;48.30;;;;;;5095819;28;20011;-65
2022/08/11 17:35:37;;;;;;;;;;;29.80;48.20;;;;;;5095293;28;20328;-65
2022/08/11 17:37:50;;;;;;;;;;;29.70;48.80;;;;;;5080189;28;19908;-65
2022/08/11 17:40:23;;;;;;;;;;;29.60;48.70;;;;;;5095487;28;19912;-65
2022/08/11 17:48:30;;;;;;;;;;;29.50;48.70;;;;;;5095013;28;19955;-65
2022/08/11 17:51:00;;;;;;;;;;;29.40;48.90;;;;;;5095415;28;20417;-65
2022/08/11 18:01:47;;;;;;;;;;;29.00;49.40;;;;;;5094704;28;19908;-65
2022/08/11 18:04:13;;;;;;;;;;;28.90;49.00;;;;;;5094980;28;20358;-65
2022/08/11 18:06:40;;;;;;;;;;;28.80;48.90;;;;;;5095000;28;19908;-64
